Terminal Aerodrome Forecast
Issued by NWS Wilmington, OH

Current Version | Previous Version | Graphics & Text | Print | Product List | Glossary On
Versions: 1 2 3 4 5 6 7 8 9 10 11 12 13 14 15 16 17 18 19 20 21 22 23 24 25 26 27
000
FTUS41 KILN 260500
TAFCVG
TAF
KCVG 260530Z 2606/2712 04008KT P6SM OVC150
     FM261200 02008KT P6SM OVC050
     FM261500 01012KT P6SM OVC025
     FM270200 35009KT P6SM SCT025 BKN040=

USA.gov is the U.S. government's official web portal to all federal, state and local government web resources and services.